sensor_id;sensor_type;location;lat;lon;timestamp;P1;durP1;ratioP1;P2;durP2;ratioP2
39680;SDS011;26327;42.550;23.120;2022-07-23T07:26:18;19.90;;;8.60;;
39680;SDS011;26327;42.550;23.120;2022-07-23T07:28:44;18.50;;;9.27;;
39680;SDS011;26327;42.550;23.120;2022-07-23T07:31:09;19.30;;;8.38;;
39680;SDS011;26327;42.550;23.120;2022-07-23T07:33:34;17.35;;;8.60;;
39680;SDS011;26327;42.550;23.120;2022-07-23T07:36:00;16.83;;;8.20;;
39680;SDS011;26327;42.550;23.120;2022-07-23T07:38:26;21.73;;;8.32;;
39680;SDS011;26327;42.550;23.120;2022-07-23T07:40:51;18.40;;;8.20;;
39680;SDS011;26327;42.550;23.120;2022-07-23T07:43:16;24.10;;;8.15;;
39680;SDS011;26327;42.550;23.120;2022-07-23T07:45:42;18.60;;;8.73;;
39680;SDS011;26327;42.550;23.120;2022-07-23T07:48:07;20.23;;;7.43;;
39680;SDS011;26327;42.550;23.120;2022-07-23T07:50:34;19.60;;;9.70;;
39680;SDS011;26327;42.550;23.120;2022-07-23T07:52:59;21.77;;;6.65;;
39680;SDS011;26327;42.550;23.120;2022-07-23T07:55:25;23.50;;;6.45;;
39680;SDS011;26327;42.550;23.120;2022-07-23T07:57:52;16.92;;;5.90;;
39680;SDS011;26327;42.550;23.120;2022-07-23T08:00:17;13.48;;;5.65;;
39680;SDS011;26327;42.550;23.120;2022-07-23T08:02:44;17.77;;;5.47;;
39680;SDS011;26327;42.550;23.120;2022-07-23T08:05:09;20.42;;;6.57;;
39680;SDS011;26327;42.550;23.120;2022-07-23T08:07:36;20.15;;;6.90;;
39680;SDS011;26327;42.550;23.120;2022-07-23T08:10:02;21.58;;;5.90;;
39680;SDS011;26327;42.550;23.120;2022-07-23T08:12:28;21.38;;;8.88;;
39680;SDS011;26327;42.550;23.120;2022-07-23T08:14:53;24.52;;;9.50;;
39680;SDS011;26327;42.550;23.120;2022-07-23T08:17:18;20.35;;;9.93;;
39680;SDS011;26327;42.550;23.120;2022-07-23T08:19:44;28.75;;;9.93;;
39680;SDS011;26327;42.550;23.120;2022-07-23T08:22:09;18.70;;;9.75;;
39680;SDS011;26327;42.550;23.120;2022-07-23T08:24:35;22.73;;;9.13;;
39680;SDS011;26327;42.550;23.120;2022-07-23T08:27:00;17.70;;;8.02;;
39680;SDS011;26327;42.550;23.120;2022-07-23T08:29:25;17.15;;;8.30;;
39680;SDS011;26327;42.550;23.120;2022-07-23T08:31:51;15.80;;;8.00;;
39680;SDS011;26327;42.550;23.120;2022-07-23T08:34:16;19.13;;;8.38;;
39680;SDS011;26327;42.550;23.120;2022-07-23T08:36:41;19.08;;;8.38;;
39680;SDS011;26327;42.550;23.120;2022-07-23T08:39:07;17.75;;;7.88;;
39680;SDS011;26327;42.550;23.120;2022-07-23T08:41:32;19.58;;;7.85;;
39680;SDS011;26327;42.550;23.120;2022-07-23T08:43:59;19.60;;;7.50;;
39680;SDS011;26327;42.550;23.120;2022-07-23T08:46:26;16.60;;;7.15;;
39680;SDS011;26327;42.550;23.120;2022-07-23T08:48:52;27.15;;;8.00;;
39680;SDS011;26327;42.550;23.120;2022-07-23T08:51:39;23.23;;;8.15;;
39680;SDS011;26327;42.550;23.120;2022-07-23T08:54:05;17.63;;;6.97;;
39680;SDS011;26327;42.550;23.120;2022-07-23T08:56:30;14.93;;;6.90;;
39680;SDS011;26327;42.550;23.120;2022-07-23T08:59:00;12.93;;;7.20;;
39680;SDS011;26327;42.550;23.120;2022-07-23T09:01:25;18.95;;;6.65;;
39680;SDS011;26327;42.550;23.120;2022-07-23T09:03:51;14.07;;;5.95;;
39680;SDS011;26327;42.550;23.120;2022-07-23T09:06:16;14.93;;;6.57;;
39680;SDS011;26327;42.550;23.120;2022-07-23T09:08:44;14.20;;;6.47;;
39680;SDS011;26327;42.550;23.120;2022-07-23T09:11:17;16.27;;;6.65;;
39680;SDS011;26327;42.550;23.120;2022-07-23T09:13:47;14.75;;;6.20;;
39680;SDS011;26327;42.550;23.120;2022-07-23T09:16:17;12.15;;;6.30;;
39680;SDS011;26327;42.550;23.120;2022-07-23T09:18:58;13.00;;;7.13;;
39680;SDS011;26327;42.550;23.120;2022-07-23T09:21:26;9.57;;;5.22;;
39680;SDS011;26327;42.550;23.120;2022-07-23T09:23:57;10.98;;;5.32;;
39680;SDS011;26327;42.550;23.120;2022-07-23T09:26:36;14.77;;;4.72;;
39680;SDS011;26327;42.550;23.120;2022-07-23T09:31:44;9.88;;;5.47;;
39680;SDS011;26327;42.550;23.120;2022-07-23T09:37:08;15.40;;;4.97;;
39680;SDS011;26327;42.550;23.120;2022-07-23T09:39:35;12.32;;;5.50;;
39680;SDS011;26327;42.550;23.120;2022-07-23T09:44:50;14.15;;;5.88;;
39680;SDS011;26327;42.550;23.120;2022-07-23T09:47:18;10.73;;;4.95;;
39680;SDS011;26327;42.550;23.120;2022-07-23T09:52:34;14.65;;;6.30;;
39680;SDS011;26327;42.550;23.120;2022-07-23T09:55:02;12.32;;;5.47;;
39680;SDS011;26327;42.550;23.120;2022-07-23T09:57:29;13.88;;;5.90;;
39680;SDS011;26327;42.550;23.120;2022-07-23T09:59:57;14.32;;;6.45;;
39680;SDS011;26327;42.550;23.120;2022-07-23T10:02:25;13.45;;;5.47;;
39680;SDS011;26327;42.550;23.120;2022-07-23T10:04:53;14.10;;;6.13;;
39680;SDS011;26327;42.550;23.120;2022-07-23T10:07:21;12.77;;;6.15;;
39680;SDS011;26327;42.550;23.120;2022-07-23T10:09:48;13.25;;;6.03;;
39680;SDS011;26327;42.550;23.120;2022-07-23T10:12:17;13.93;;;5.97;;
39680;SDS011;26327;42.550;23.120;2022-07-23T10:15:01;12.75;;;5.60;;
39680;SDS011;26327;42.550;23.120;2022-07-23T10:17:30;13.38;;;5.95;;
39680;SDS011;26327;42.550;23.120;2022-07-23T10:19:56;11.55;;;5.75;;
39680;SDS011;26327;42.550;23.120;2022-07-23T10:22:30;14.80;;;6.13;;
39680;SDS011;26327;42.550;23.120;2022-07-23T10:25:08;13.45;;;5.63;;
39680;SDS011;26327;42.550;23.120;2022-07-23T10:30:23;12.95;;;5.93;;
39680;SDS011;26327;42.550;23.120;2022-07-23T10:35:56;13.57;;;5.70;;
39680;SDS011;26327;42.550;23.120;2022-07-23T10:38:34;12.63;;;5.55;;
39680;SDS011;26327;42.550;23.120;2022-07-23T10:41:08;14.70;;;5.60;;
39680;SDS011;26327;42.550;23.120;2022-07-23T10:43:33;15.95;;;6.22;;
39680;SDS011;26327;42.550;23.120;2022-07-23T10:46:21;15.95;;;6.05;;
39680;SDS011;26327;42.550;23.120;2022-07-23T10:49:25;10.77;;;5.32;;
39680;SDS011;26327;42.550;23.120;2022-07-23T10:54:48;20.25;;;6.03;;
39680;SDS011;26327;42.550;23.120;2022-07-23T10:57:18;17.48;;;5.20;;
39680;SDS011;26327;42.550;23.120;2022-07-23T11:02:27;13.80;;;5.13;;
39680;SDS011;26327;42.550;23.120;2022-07-23T11:04:58;15.52;;;5.30;;
39680;SDS011;26327;42.550;23.120;2022-07-23T11:07:35;17.17;;;5.40;;
39680;SDS011;26327;42.550;23.120;2022-07-23T11:10:02;16.48;;;5.25;;
39680;SDS011;26327;42.550;23.120;2022-07-23T11:17:25;17.23;;;4.97;;
39680;SDS011;26327;42.550;23.120;2022-07-23T11:25:50;18.27;;;5.93;;
39680;SDS011;26327;42.550;23.120;2022-07-23T11:28:08;15.75;;;5.90;;
39680;SDS011;26327;42.550;23.120;2022-07-23T11:30:38;14.98;;;4.70;;
39680;SDS011;26327;42.550;23.120;2022-07-23T11:35:41;16.40;;;5.10;;
39680;SDS011;26327;42.550;23.120;2022-07-23T11:40:43;14.38;;;5.10;;
39680;SDS011;26327;42.550;23.120;2022-07-23T11:43:10;15.55;;;5.28;;
39680;SDS011;26327;42.550;23.120;2022-07-23T11:45:38;12.60;;;5.18;;
39680;SDS011;26327;42.550;23.120;2022-07-23T11:48:05;13.90;;;5.60;;
39680;SDS011;26327;42.550;23.120;2022-07-23T11:50:31;16.80;;;5.55;;
39680;SDS011;26327;42.550;23.120;2022-07-23T11:52:57;15.90;;;5.60;;
39680;SDS011;26327;42.550;23.120;2022-07-23T11:55:23;14.43;;;4.93;;
39680;SDS011;26327;42.550;23.120;2022-07-23T11:57:50;16.27;;;6.10;;
39680;SDS011;26327;42.550;23.120;2022-07-23T12:00:18;15.45;;;4.75;;
39680;SDS011;26327;42.550;23.120;2022-07-23T12:02:49;16.20;;;5.53;;
39680;SDS011;26327;42.550;23.120;2022-07-23T12:05:18;13.68;;;5.50;;
39680;SDS011;26327;42.550;23.120;2022-07-23T12:07:46;16.10;;;5.43;;
39680;SDS011;26327;42.550;23.120;2022-07-23T12:10:18;14.57;;;5.43;;
39680;SDS011;26327;42.550;23.120;2022-07-23T12:12:46;15.68;;;5.20;;
39680;SDS011;26327;42.550;23.120;2022-07-23T12:15:15;18.40;;;5.60;;
39680;SDS011;26327;42.550;23.120;2022-07-23T12:17:45;10.50;;;4.93;;
39680;SDS011;26327;42.550;23.120;2022-07-23T12:20:16;11.90;;;5.03;;
39680;SDS011;26327;42.550;23.120;2022-07-23T12:25:20;11.80;;;5.25;;
39680;SDS011;26327;42.550;23.120;2022-07-23T12:28:30;11.70;;;5.45;;
39680;SDS011;26327;42.550;23.120;2022-07-23T12:31:14;11.98;;;5.28;;
39680;SDS011;26327;42.550;23.120;2022-07-23T12:34:14;11.75;;;5.25;;
39680;SDS011;26327;42.550;23.120;2022-07-23T12:36:40;12.80;;;5.43;;
39680;SDS011;26327;42.550;23.120;2022-07-23T12:39:06;12.63;;;5.55;;
39680;SDS011;26327;42.550;23.120;2022-07-23T12:41:50;16.73;;;5.45;;
39680;SDS011;26327;42.550;23.120;2022-07-23T12:44:17;12.63;;;5.15;;
39680;SDS011;26327;42.550;23.120;2022-07-23T12:46:42;16.95;;;5.53;;
39680;SDS011;26327;42.550;23.120;2022-07-23T12:49:27;13.27;;;4.80;;
39680;SDS011;26327;42.550;23.120;2022-07-23T12:51:53;11.57;;;4.78;;
39680;SDS011;26327;42.550;23.120;2022-07-23T12:54:26;14.43;;;5.50;;
39680;SDS011;26327;42.550;23.120;2022-07-23T12:56:55;16.90;;;5.03;;
39680;SDS011;26327;42.550;23.120;2022-07-23T12:59:21;12.25;;;5.10;;
39680;SDS011;26327;42.550;23.120;2022-07-23T13:01:56;17.27;;;5.53;;
39680;SDS011;26327;42.550;23.120;2022-07-23T13:04:40;20.88;;;5.43;;
39680;SDS011;26327;42.550;23.120;2022-07-23T13:07:05;14.10;;;5.25;;
39680;SDS011;26327;42.550;23.120;2022-07-23T13:09:31;15.52;;;4.80;;
39680;SDS011;26327;42.550;23.120;2022-07-23T13:11:59;14.80;;;5.25;;
39680;SDS011;26327;42.550;23.120;2022-07-23T13:14:25;14.32;;;5.32;;
39680;SDS011;26327;42.550;23.120;2022-07-23T13:16:51;14.15;;;4.93;;
39680;SDS011;26327;42.550;23.120;2022-07-23T13:19:18;13.07;;;5.80;;
39680;SDS011;26327;42.550;23.120;2022-07-23T13:21:44;12.88;;;5.00;;
39680;SDS011;26327;42.550;23.120;2022-07-23T13:24:11;12.38;;;5.05;;
39680;SDS011;26327;42.550;23.120;2022-07-23T13:26:37;14.73;;;4.97;;
39680;SDS011;26327;42.550;23.120;2022-07-23T13:29:06;12.98;;;5.13;;
39680;SDS011;26327;42.550;23.120;2022-07-23T13:31:32;14.60;;;4.72;;
39680;SDS011;26327;42.550;23.120;2022-07-23T13:33:58;10.93;;;5.03;;
39680;SDS011;26327;42.550;23.120;2022-07-23T13:36:23;15.43;;;5.28;;
39680;SDS011;26327;42.550;23.120;2022-07-23T13:38:48;14.68;;;5.22;;
39680;SDS011;26327;42.550;23.120;2022-07-23T13:41:15;11.25;;;5.28;;
39680;SDS011;26327;42.550;23.120;2022-07-23T13:43:42;8.15;;;5.25;;
39680;SDS011;26327;42.550;23.120;2022-07-23T13:46:07;9.02;;;5.28;;
39680;SDS011;26327;42.550;23.120;2022-07-23T13:48:33;11.20;;;4.63;;
39680;SDS011;26327;42.550;23.120;2022-07-23T13:50:58;12.68;;;4.72;;
39680;SDS011;26327;42.550;23.120;2022-07-23T13:53:24;11.32;;;5.07;;
39680;SDS011;26327;42.550;23.120;2022-07-23T13:55:50;14.93;;;5.47;;
39680;SDS011;26327;42.550;23.120;2022-07-23T13:58:17;14.47;;;6.07;;
39680;SDS011;26327;42.550;23.120;2022-07-23T14:00:48;15.07;;;5.45;;
39680;SDS011;26327;42.550;23.120;2022-07-23T14:03:16;14.52;;;5.78;;
39680;SDS011;26327;42.550;23.120;2022-07-23T14:05:42;13.52;;;4.75;;
39680;SDS011;26327;42.550;23.120;2022-07-23T14:08:08;16.35;;;5.60;;
39680;SDS011;26327;42.550;23.120;2022-07-23T14:10:34;13.90;;;5.28;;
39680;SDS011;26327;42.550;23.120;2022-07-23T14:12:59;14.05;;;5.15;;
39680;SDS011;26327;42.550;23.120;2022-07-23T14:15:26;9.90;;;5.10;;
39680;SDS011;26327;42.550;23.120;2022-07-23T14:17:53;13.90;;;5.45;;
39680;SDS011;26327;42.550;23.120;2022-07-23T14:20:18;12.07;;;5.13;;
39680;SDS011;26327;42.550;23.120;2022-07-23T14:22:44;12.68;;;5.75;;
39680;SDS011;26327;42.550;23.120;2022-07-23T14:25:10;11.43;;;5.35;;
39680;SDS011;26327;42.550;23.120;2022-07-23T14:27:37;10.60;;;5.55;;
39680;SDS011;26327;42.550;23.120;2022-07-23T14:30:03;13.13;;;5.50;;
39680;SDS011;26327;42.550;23.120;2022-07-23T14:32:29;12.18;;;5.25;;
39680;SDS011;26327;42.550;23.120;2022-07-23T14:34:55;14.45;;;6.20;;
39680;SDS011;26327;42.550;23.120;2022-07-23T14:37:20;10.77;;;5.43;;
39680;SDS011;26327;42.550;23.120;2022-07-23T14:39:47;15.15;;;5.47;;
39680;SDS011;26327;42.550;23.120;2022-07-23T14:42:12;15.30;;;5.70;;
39680;SDS011;26327;42.550;23.120;2022-07-23T14:44:38;11.90;;;5.28;;
39680;SDS011;26327;42.550;23.120;2022-07-23T14:47:04;16.65;;;5.47;;
39680;SDS011;26327;42.550;23.120;2022-07-23T14:49:33;10.15;;;5.43;;
39680;SDS011;26327;42.550;23.120;2022-07-23T14:51:59;13.27;;;5.45;;
39680;SDS011;26327;42.550;23.120;2022-07-23T14:54:26;13.32;;;5.80;;
39680;SDS011;26327;42.550;23.120;2022-07-23T14:56:53;10.20;;;5.18;;
39680;SDS011;26327;42.550;23.120;2022-07-23T14:59:22;12.88;;;5.18;;
39680;SDS011;26327;42.550;23.120;2022-07-23T15:01:48;10.70;;;5.00;;
39680;SDS011;26327;42.550;23.120;2022-07-23T15:04:14;12.90;;;5.90;;
39680;SDS011;26327;42.550;23.120;2022-07-23T15:06:39;11.10;;;5.47;;
39680;SDS011;26327;42.550;23.120;2022-07-23T15:09:05;14.35;;;5.28;;
39680;SDS011;26327;42.550;23.120;2022-07-23T15:11:31;14.95;;;5.65;;
39680;SDS011;26327;42.550;23.120;2022-07-23T15:13:59;14.90;;;5.30;;
39680;SDS011;26327;42.550;23.120;2022-07-23T15:16:26;15.68;;;5.43;;
39680;SDS011;26327;42.550;23.120;2022-07-23T15:18:52;12.50;;;5.47;;
39680;SDS011;26327;42.550;23.120;2022-07-23T15:21:17;9.18;;;5.45;;
39680;SDS011;26327;42.550;23.120;2022-07-23T15:23:43;11.48;;;5.40;;
39680;SDS011;26327;42.550;23.120;2022-07-23T15:26:09;14.82;;;5.22;;
39680;SDS011;26327;42.550;23.120;2022-07-23T15:28:34;12.88;;;5.45;;
39680;SDS011;26327;42.550;23.120;2022-07-23T15:31:01;18.45;;;5.35;;
39680;SDS011;26327;42.550;23.120;2022-07-23T15:33:27;12.95;;;5.30;;
39680;SDS011;26327;42.550;23.120;2022-07-23T15:35:52;15.00;;;5.15;;
39680;SDS011;26327;42.550;23.120;2022-07-23T15:38:20;13.10;;;5.57;;
39680;SDS011;26327;42.550;23.120;2022-07-23T15:40:46;11.60;;;5.22;;
39680;SDS011;26327;42.550;23.120;2022-07-23T15:43:12;11.23;;;5.65;;
39680;SDS011;26327;42.550;23.120;2022-07-23T15:45:38;12.50;;;5.45;;
39680;SDS011;26327;42.550;23.120;2022-07-23T15:48:05;15.63;;;5.57;;
39680;SDS011;26327;42.550;23.120;2022-07-23T15:50:31;16.02;;;5.57;;
39680;SDS011;26327;42.550;23.120;2022-07-23T15:52:57;13.48;;;4.80;;
39680;SDS011;26327;42.550;23.120;2022-07-23T15:55:22;11.13;;;4.97;;
39680;SDS011;26327;42.550;23.120;2022-07-23T15:57:48;16.33;;;6.20;;
39680;SDS011;26327;42.550;23.120;2022-07-23T16:00:14;20.80;;;6.78;;
39680;SDS011;26327;42.550;23.120;2022-07-23T16:02:40;12.70;;;5.07;;
39680;SDS011;26327;42.550;23.120;2022-07-23T16:05:05;12.75;;;5.57;;
39680;SDS011;26327;42.550;23.120;2022-07-23T16:07:31;11.80;;;5.30;;
39680;SDS011;26327;42.550;23.120;2022-07-23T16:09:59;19.93;;;6.97;;
39680;SDS011;26327;42.550;23.120;2022-07-23T16:12:24;10.38;;;5.30;;
39680;SDS011;26327;42.550;23.120;2022-07-23T16:14:50;17.25;;;5.93;;
39680;SDS011;26327;42.550;23.120;2022-07-23T16:17:15;21.13;;;5.60;;
39680;SDS011;26327;42.550;23.120;2022-07-23T16:19:41;16.15;;;5.97;;
39680;SDS011;26327;42.550;23.120;2022-07-23T16:22:06;16.20;;;6.07;;
39680;SDS011;26327;42.550;23.120;2022-07-23T16:24:31;16.67;;;5.97;;
39680;SDS011;26327;42.550;23.120;2022-07-23T16:26:57;14.18;;;6.13;;
39680;SDS011;26327;42.550;23.120;2022-07-23T16:29:22;15.82;;;5.80;;
39680;SDS011;26327;42.550;23.120;2022-07-23T16:31:48;14.45;;;5.53;;
39680;SDS011;26327;42.550;23.120;2022-07-23T16:34:13;12.18;;;5.55;;
39680;SDS011;26327;42.550;23.120;2022-07-23T16:36:39;9.77;;;5.25;;
39680;SDS011;26327;42.550;23.120;2022-07-23T16:39:05;11.75;;;6.00;;
39680;SDS011;26327;42.550;23.120;2022-07-23T16:41:31;11.80;;;5.45;;
39680;SDS011;26327;42.550;23.120;2022-07-23T16:43:56;10.88;;;5.10;;
39680;SDS011;26327;42.550;23.120;2022-07-23T16:46:22;16.27;;;6.07;;
39680;SDS011;26327;42.550;23.120;2022-07-23T16:48:47;11.43;;;5.07;;
39680;SDS011;26327;42.550;23.120;2022-07-23T16:51:13;12.52;;;5.55;;
39680;SDS011;26327;42.550;23.120;2022-07-23T16:53:38;39.38;;;7.45;;
39680;SDS011;26327;42.550;23.120;2022-07-23T16:56:04;32.80;;;6.45;;
39680;SDS011;26327;42.550;23.120;2022-07-23T16:58:31;21.35;;;5.95;;
39680;SDS011;26327;42.550;23.120;2022-07-23T17:00:57;19.55;;;5.57;;
39680;SDS011;26327;42.550;23.120;2022-07-23T17:03:23;14.05;;;5.30;;
39680;SDS011;26327;42.550;23.120;2022-07-23T17:05:50;15.90;;;5.88;;
39680;SDS011;26327;42.550;23.120;2022-07-23T17:08:15;15.90;;;5.72;;
39680;SDS011;26327;42.550;23.120;2022-07-23T17:10:41;13.50;;;6.40;;
39680;SDS011;26327;42.550;23.120;2022-07-23T17:13:06;15.43;;;6.32;;
39680;SDS011;26327;42.550;23.120;2022-07-23T17:15:32;12.20;;;6.15;;
39680;SDS011;26327;42.550;23.120;2022-07-23T17:17:57;15.38;;;7.75;;
39680;SDS011;26327;42.550;23.120;2022-07-23T17:20:23;17.65;;;6.70;;
39680;SDS011;26327;42.550;23.120;2022-07-23T17:22:48;27.42;;;7.05;;
39680;SDS011;26327;42.550;23.120;2022-07-23T17:25:13;18.00;;;6.53;;
39680;SDS011;26327;42.550;23.120;2022-07-23T17:27:39;20.88;;;7.30;;
39680;SDS011;26327;42.550;23.120;2022-07-23T17:30:06;18.17;;;6.63;;
39680;SDS011;26327;42.550;23.120;2022-07-23T17:32:32;16.17;;;6.07;;
39680;SDS011;26327;42.550;23.120;2022-07-23T17:34:58;14.95;;;5.97;;
39680;SDS011;26327;42.550;23.120;2022-07-23T17:37:23;14.35;;;5.80;;
39680;SDS011;26327;42.550;23.120;2022-07-23T17:39:49;18.80;;;6.63;;
39680;SDS011;26327;42.550;23.120;2022-07-23T17:42:14;17.88;;;6.03;;
39680;SDS011;26327;42.550;23.120;2022-07-23T17:44:40;13.93;;;6.53;;
39680;SDS011;26327;42.550;23.120;2022-07-23T17:47:05;13.65;;;6.22;;
39680;SDS011;26327;42.550;23.120;2022-07-23T17:49:30;13.38;;;5.75;;
39680;SDS011;26327;42.550;23.120;2022-07-23T17:51:58;15.50;;;7.03;;
39680;SDS011;26327;42.550;23.120;2022-07-23T17:54:25;22.90;;;7.50;;
39680;SDS011;26327;42.550;23.120;2022-07-23T17:56:51;18.38;;;7.13;;
39680;SDS011;26327;42.550;23.120;2022-07-23T17:59:16;18.90;;;8.15;;
39680;SDS011;26327;42.550;23.120;2022-07-23T18:01:41;16.17;;;7.75;;
39680;SDS011;26327;42.550;23.120;2022-07-23T18:04:07;14.43;;;7.68;;
39680;SDS011;26327;42.550;23.120;2022-07-23T18:06:35;16.95;;;6.75;;
39680;SDS011;26327;42.550;23.120;2022-07-23T18:09:01;14.82;;;6.22;;
39680;SDS011;26327;42.550;23.120;2022-07-23T18:11:26;19.23;;;8.20;;
39680;SDS011;26327;42.550;23.120;2022-07-23T18:13:52;19.95;;;9.20;;
39680;SDS011;26327;42.550;23.120;2022-07-23T18:16:17;20.48;;;8.10;;
39680;SDS011;26327;42.550;23.120;2022-07-23T18:18:42;16.95;;;9.02;;
39680;SDS011;26327;42.550;23.120;2022-07-23T18:21:08;18.88;;;7.38;;
39680;SDS011;26327;42.550;23.120;2022-07-23T18:23:33;17.42;;;6.75;;
39680;SDS011;26327;42.550;23.120;2022-07-23T18:25:59;15.73;;;7.22;;
39680;SDS011;26327;42.550;23.120;2022-07-23T18:28:24;15.07;;;7.45;;
39680;SDS011;26327;42.550;23.120;2022-07-23T18:30:50;30.45;;;7.70;;
39680;SDS011;26327;42.550;23.120;2022-07-23T18:33:15;17.05;;;6.90;;
39680;SDS011;26327;42.550;23.120;2022-07-23T18:35:41;16.67;;;6.57;;
39680;SDS011;26327;42.550;23.120;2022-07-23T18:38:07;14.15;;;7.20;;
39680;SDS011;26327;42.550;23.120;2022-07-23T18:40:33;16.40;;;7.22;;
39680;SDS011;26327;42.550;23.120;2022-07-23T18:42:59;18.63;;;7.43;;
39680;SDS011;26327;42.550;23.120;2022-07-23T18:45:25;23.40;;;7.88;;
39680;SDS011;26327;42.550;23.120;2022-07-23T18:47:51;22.80;;;7.30;;
39680;SDS011;26327;42.550;23.120;2022-07-23T18:50:18;17.50;;;7.10;;
39680;SDS011;26327;42.550;23.120;2022-07-23T18:52:44;16.17;;;7.03;;
39680;SDS011;26327;42.550;23.120;2022-07-23T18:55:10;13.07;;;6.90;;
39680;SDS011;26327;42.550;23.120;2022-07-23T18:57:36;17.38;;;6.82;;
39680;SDS011;26327;42.550;23.120;2022-07-23T19:00:05;17.55;;;7.18;;
39680;SDS011;26327;42.550;23.120;2022-07-23T19:02:32;14.60;;;6.53;;
39680;SDS011;26327;42.550;23.120;2022-07-23T19:04:58;19.98;;;7.90;;
39680;SDS011;26327;42.550;23.120;2022-07-23T19:07:23;16.77;;;8.40;;
39680;SDS011;26327;42.550;23.120;2022-07-23T19:09:49;14.40;;;8.13;;
39680;SDS011;26327;42.550;23.120;2022-07-23T19:12:14;17.35;;;7.82;;
39680;SDS011;26327;42.550;23.120;2022-07-23T19:14:40;19.75;;;7.22;;
39680;SDS011;26327;42.550;23.120;2022-07-23T19:17:05;17.65;;;6.78;;
39680;SDS011;26327;42.550;23.120;2022-07-23T19:19:31;17.30;;;7.18;;
39680;SDS011;26327;42.550;23.120;2022-07-23T19:21:57;17.50;;;7.18;;
39680;SDS011;26327;42.550;23.120;2022-07-23T19:24:22;15.82;;;6.70;;
39680;SDS011;26327;42.550;23.120;2022-07-23T19:26:50;16.55;;;7.63;;
39680;SDS011;26327;42.550;23.120;2022-07-23T19:29:15;16.67;;;7.35;;
39680;SDS011;26327;42.550;23.120;2022-07-23T19:31:40;11.57;;;6.70;;
39680;SDS011;26327;42.550;23.120;2022-07-23T19:34:06;22.65;;;7.70;;
39680;SDS011;26327;42.550;23.120;2022-07-23T19:36:31;16.85;;;7.32;;
39680;SDS011;26327;42.550;23.120;2022-07-23T19:38:57;15.20;;;6.80;;
39680;SDS011;26327;42.550;23.120;2022-07-23T19:41:22;16.75;;;7.20;;
39680;SDS011;26327;42.550;23.120;2022-07-23T19:43:48;17.02;;;6.75;;
39680;SDS011;26327;42.550;23.120;2022-07-23T19:46:13;14.02;;;6.72;;
39680;SDS011;26327;42.550;23.120;2022-07-23T19:48:38;12.60;;;6.82;;
39680;SDS011;26327;42.550;23.120;2022-07-23T19:51:04;13.55;;;7.20;;
39680;SDS011;26327;42.550;23.120;2022-07-23T19:53:29;13.90;;;7.25;;
39680;SDS011;26327;42.550;23.120;2022-07-23T19:55:55;11.05;;;6.50;;
39680;SDS011;26327;42.550;23.120;2022-07-23T19:58:20;13.73;;;7.15;;
39680;SDS011;26327;42.550;23.120;2022-07-23T20:00:46;15.13;;;7.00;;
39680;SDS011;26327;42.550;23.120;2022-07-23T20:03:11;20.48;;;6.78;;
39680;SDS011;26327;42.550;23.120;2022-07-23T20:05:37;13.40;;;7.55;;
39680;SDS011;26327;42.550;23.120;2022-07-23T20:08:02;14.05;;;6.70;;
39680;SDS011;26327;42.550;23.120;2022-07-23T20:10:28;15.85;;;7.20;;
39680;SDS011;26327;42.550;23.120;2022-07-23T20:12:54;10.73;;;7.13;;
39680;SDS011;26327;42.550;23.120;2022-07-23T20:15:20;17.33;;;6.82;;
39680;SDS011;26327;42.550;23.120;2022-07-23T20:17:46;13.63;;;6.53;;
39680;SDS011;26327;42.550;23.120;2022-07-23T20:22:44;12.07;;;6.57;;
39680;SDS011;26327;42.550;23.120;2022-07-23T20:25:09;14.15;;;7.05;;
39680;SDS011;26327;42.550;23.120;2022-07-23T20:27:38;13.68;;;7.05;;
39680;SDS011;26327;42.550;23.120;2022-07-23T20:30:06;16.20;;;7.70;;
39680;SDS011;26327;42.550;23.120;2022-07-23T20:32:33;15.07;;;6.38;;
39680;SDS011;26327;42.550;23.120;2022-07-23T20:37:31;12.27;;;6.80;;
39680;SDS011;26327;42.550;23.120;2022-07-23T20:39:57;15.15;;;7.18;;
39680;SDS011;26327;42.550;23.120;2022-07-23T20:42:22;11.48;;;6.50;;
39680;SDS011;26327;42.550;23.120;2022-07-23T20:44:48;14.93;;;6.30;;
39680;SDS011;26327;42.550;23.120;2022-07-23T20:47:42;14.20;;;6.45;;
39680;SDS011;26327;42.550;23.120;2022-07-23T20:50:07;11.15;;;6.95;;
39680;SDS011;26327;42.550;23.120;2022-07-23T20:52:35;11.98;;;6.13;;
39680;SDS011;26327;42.550;23.120;2022-07-23T20:55:00;16.92;;;6.53;;
39680;SDS011;26327;42.550;23.120;2022-07-23T20:57:27;10.35;;;5.70;;
39680;SDS011;26327;42.550;23.120;2022-07-23T20:59:53;11.20;;;6.60;;
39680;SDS011;26327;42.550;23.120;2022-07-23T21:02:19;11.95;;;6.00;;
39680;SDS011;26327;42.550;23.120;2022-07-23T21:04:45;12.25;;;6.72;;
39680;SDS011;26327;42.550;23.120;2022-07-23T21:07:10;12.85;;;6.85;;
39680;SDS011;26327;42.550;23.120;2022-07-23T21:09:35;13.77;;;6.85;;
39680;SDS011;26327;42.550;23.120;2022-07-23T21:12:01;15.25;;;6.45;;
39680;SDS011;26327;42.550;23.120;2022-07-23T21:14:26;16.27;;;6.82;;
39680;SDS011;26327;42.550;23.120;2022-07-23T21:16:52;13.38;;;6.13;;
39680;SDS011;26327;42.550;23.120;2022-07-23T21:19:17;10.70;;;6.60;;
39680;SDS011;26327;42.550;23.120;2022-07-23T21:21:43;15.95;;;6.75;;
39680;SDS011;26327;42.550;23.120;2022-07-23T21:24:09;11.80;;;6.50;;
39680;SDS011;26327;42.550;23.120;2022-07-23T21:26:34;14.18;;;7.10;;
39680;SDS011;26327;42.550;23.120;2022-07-23T21:29:00;11.98;;;6.60;;
39680;SDS011;26327;42.550;23.120;2022-07-23T21:31:28;18.27;;;7.20;;
39680;SDS011;26327;42.550;23.120;2022-07-23T21:33:53;13.35;;;6.72;;
39680;SDS011;26327;42.550;23.120;2022-07-23T21:36:19;13.60;;;6.30;;
39680;SDS011;26327;42.550;23.120;2022-07-23T21:38:44;15.07;;;6.47;;
39680;SDS011;26327;42.550;23.120;2022-07-23T21:41:10;14.52;;;6.78;;
39680;SDS011;26327;42.550;23.120;2022-07-23T21:43:35;17.90;;;6.70;;
39680;SDS011;26327;42.550;23.120;2022-07-23T21:46:01;16.25;;;7.15;;
39680;SDS011;26327;42.550;23.120;2022-07-23T21:48:27;13.07;;;6.55;;
39680;SDS011;26327;42.550;23.120;2022-07-23T21:50:52;11.10;;;6.43;;
39680;SDS011;26327;42.550;23.120;2022-07-23T21:53:18;10.48;;;5.57;;
39680;SDS011;26327;42.550;23.120;2022-07-23T21:55:43;15.32;;;6.32;;
39680;SDS011;26327;42.550;23.120;2022-07-23T21:58:09;16.40;;;6.90;;
39680;SDS011;26327;42.550;23.120;2022-07-23T22:00:34;13.75;;;6.28;;
39680;SDS011;26327;42.550;23.120;2022-07-23T22:03:00;11.77;;;6.30;;
39680;SDS011;26327;42.550;23.120;2022-07-23T22:05:27;13.88;;;7.10;;
39680;SDS011;26327;42.550;23.120;2022-07-23T22:07:53;12.85;;;6.55;;
